createdAt,value
2022-08-08T00:02:03.079Z,101892.13
2022-08-08T00:04:55.473Z,101886.03
2022-08-08T00:07:52.500Z,101887.00
2022-08-08T00:10:49.641Z,101892.31
2022-08-08T00:14:17.166Z,101891.44
2022-08-08T00:16:57.018Z,101885.31
2022-08-08T00:19:51.370Z,101882.81
2022-08-08T00:22:42.502Z,101881.94
2022-08-08T00:25:44.915Z,101880.22
2022-08-08T00:28:42.354Z,101882.88
2022-08-08T00:32:21.231Z,101885.63
2022-08-08T00:35:20.252Z,101886.63
2022-08-08T00:38:32.010Z,101876.97
2022-08-08T00:42:19.729Z,101882.28
2022-08-08T00:45:44.086Z,101884.09
2022-08-08T00:49:01.128Z,101884.16
2022-08-08T00:52:19.976Z,101886.03
2022-08-08T00:55:52.913Z,101887.88
2022-08-08T00:59:14.777Z,101888.53
2022-08-08T01:03:57.319Z,101890.53
2022-08-08T01:06:11.770Z,101891.22
2022-08-08T01:09:42.696Z,101889.69
2022-08-08T01:13:15.286Z,101891.69
2022-08-08T01:16:37.158Z,101890.91
2022-08-08T01:20:03.925Z,101891.91
2022-08-08T01:24:03.225Z,101884.91
2022-08-08T01:27:10.883Z,101886.81
2022-08-08T01:30:55.896Z,101884.28
2022-08-08T01:34:35.515Z,101880.78
2022-08-08T01:38:04.649Z,101879.91
2022-08-08T01:41:24.950Z,101859.75
2022-08-08T01:44:34.447Z,101882.56
2022-08-08T01:48:16.847Z,101885.25
2022-08-08T01:50:53.823Z,101882.59
2022-08-08T01:55:08.556Z,101878.19
2022-08-08T01:57:17.531Z,101880.03
2022-08-08T02:00:15.276Z,101876.41
2022-08-08T02:03:50.587Z,101878.13
2022-08-08T02:06:58.535Z,101874.56
2022-08-08T02:10:12.112Z,101871.94
2022-08-08T02:13:06.503Z,101866.75
2022-08-08T02:16:04.498Z,101871.19
2022-08-08T02:18:59.535Z,101860.56
2022-08-08T02:22:16.345Z,101861.47
2022-08-08T02:25:16.663Z,101866.72
2022-08-08T02:28:09.427Z,101874.66
2022-08-08T02:31:07.207Z,101871.19
2022-08-08T02:34:27.525Z,101874.81
2022-08-08T02:37:53.226Z,101879.19
2022-08-08T02:40:50.264Z,101878.22
2022-08-08T02:44:37.591Z,101873.94
2022-08-08T02:48:13.001Z,101827.56
2022-08-08T02:51:55.576Z,101874.13
2022-08-08T02:55:24.548Z,101878.66
2022-08-08T02:58:53.489Z,101880.44
2022-08-08T03:02:28.894Z,101886.66
2022-08-08T03:06:04.195Z,101894.63
2022-08-08T03:09:34.075Z,101885.88
2022-08-08T03:13:02.674Z,101882.34
2022-08-08T03:16:35.541Z,101894.66
2022-08-08T03:19:51.499Z,101890.38
2022-08-08T03:22:47.350Z,101886.91
2022-08-08T03:25:36.590Z,101891.31
2022-08-08T03:28:33.117Z,101888.69
2022-08-08T03:32:06.430Z,101890.38
2022-08-08T03:34:47.413Z,101890.38
2022-08-08T03:38:52.827Z,101893.97
2022-08-08T03:40:52.637Z,101889.59
2022-08-08T03:43:41.711Z,101892.28
2022-08-08T03:46:32.478Z,101846.69
2022-08-08T03:49:57.803Z,101868.63
2022-08-08T03:52:31.407Z,101890.50
2022-08-08T03:55:55.911Z,101892.28
2022-08-08T03:58:37.343Z,101898.38
2022-08-08T04:02:22.973Z,101897.56
2022-08-08T04:04:45.469Z,101909.00
2022-08-08T04:07:37.378Z,101907.19
2022-08-08T04:10:24.469Z,101906.28
2022-08-08T04:13:17.993Z,101905.41
2022-08-08T04:16:11.759Z,101914.25
2022-08-08T04:19:02.564Z,101915.03
2022-08-08T04:21:50.353Z,101922.91
2022-08-08T04:24:37.055Z,101921.97
2022-08-08T04:28:02.535Z,101919.28
2022-08-08T04:30:44.159Z,101919.22
2022-08-08T04:33:41.545Z,101922.72
2022-08-08T04:36:30.006Z,101924.50
2022-08-08T04:40:04.022Z,101926.28
2022-08-08T04:42:26.138Z,101927.97
2022-08-08T04:45:13.264Z,101910.31
2022-08-08T04:48:01.542Z,101936.44
2022-08-08T04:50:54.014Z,101934.50
2022-08-08T04:54:26.937Z,101939.53
2022-08-08T04:56:56.352Z,101935.81
2022-08-08T04:59:48.999Z,101934.72
2022-08-08T05:02:37.348Z,101936.13
2022-08-08T05:05:44.465Z,101939.66
2022-08-08T05:08:35.949Z,101927.97
2022-08-08T05:11:26.194Z,101937.19
2022-08-08T05:19:02.083Z,101932.44
2022-08-08T05:21:59.579Z,101929.66
2022-08-08T05:24:49.444Z,101925.44
2022-08-08T05:27:41.600Z,101929.03
2022-08-08T05:30:39.453Z,101933.88
2022-08-08T05:33:44.237Z,101930.13
2022-08-08T05:36:41.094Z,101932.56
2022-08-08T05:39:35.006Z,101939.81
2022-08-08T05:42:39.734Z,101936.81
2022-08-08T05:45:41.295Z,101939.88
2022-08-08T05:48:31.428Z,101936.50
2022-08-08T05:51:23.189Z,101945.50
2022-08-08T05:54:28.914Z,101934.28
2022-08-08T05:57:57.499Z,101942.25
2022-08-08T06:00:39.070Z,101941.06
2022-08-08T06:03:33.633Z,101947.09
2022-08-08T06:06:32.470Z,101943.50
2022-08-08T06:09:58.447Z,101948.78
2022-08-08T06:12:38.374Z,101948.44
2022-08-08T06:15:49.902Z,101918.47
2022-08-08T06:18:40.011Z,101941.31
2022-08-08T06:21:48.449Z,101952.03
2022-08-08T06:24:47.243Z,101948.38
2022-08-08T06:27:52.528Z,101947.91
2022-08-08T06:30:41.833Z,101947.56
2022-08-08T06:34:26.150Z,101943.16
2022-08-08T06:36:53.905Z,101948.88
2022-08-08T06:39:55.995Z,101950.94
2022-08-08T06:42:52.133Z,101952.41
2022-08-08T06:45:44.898Z,101912.88
2022-08-08T06:48:38.479Z,101932.34
2022-08-08T06:51:46.717Z,101947.88
2022-08-08T06:54:38.845Z,101951.56
2022-08-08T06:57:29.465Z,101951.09
2022-08-08T07:00:40.730Z,101955.56
2022-08-08T07:03:52.579Z,101956.94
2022-08-08T07:06:46.995Z,101962.50
2022-08-08T07:09:45.609Z,101961.53
2022-08-08T07:12:47.592Z,101963.63
2022-08-08T07:16:04.394Z,101959.19
2022-08-08T07:19:06.945Z,101956.50
2022-08-08T07:22:05.411Z,101961.88
2022-08-08T07:25:01.795Z,101965.47
2022-08-08T07:28:02.635Z,101957.63
2022-08-08T07:30:58.934Z,101968.16
2022-08-08T07:33:53.272Z,101958.69
2022-08-08T07:36:50.234Z,101956.94
2022-08-08T07:39:56.028Z,101960.53
2022-08-08T07:42:48.364Z,101965.88
2022-08-08T07:45:51.526Z,101962.56
2022-08-08T07:48:45.084Z,101963.06
2022-08-08T07:51:45.058Z,101977.22
2022-08-08T07:54:44.978Z,101973.50
2022-08-08T07:57:45.016Z,101978.97
2022-08-08T08:00:41.946Z,101986.59
2022-08-08T08:03:43.455Z,101984.88
2022-08-08T08:06:41.708Z,101982.03
2022-08-08T08:09:38.042Z,101982.91
2022-08-08T08:12:35.190Z,101982.66
2022-08-08T08:15:32.365Z,101987.72
2022-08-08T08:18:31.692Z,101978.00
2022-08-08T08:21:44.664Z,101975.06
2022-08-08T08:24:51.590Z,101992.91
2022-08-08T08:27:46.734Z,101984.25
2022-08-08T08:30:35.530Z,101989.03
2022-08-08T08:33:22.474Z,101988.25
2022-08-08T08:36:19.922Z,101985.94
2022-08-08T08:40:00.277Z,101982.78
2022-08-08T08:42:43.457Z,101975.59
2022-08-08T08:45:40.859Z,101982.59
2022-08-08T08:48:32.494Z,101977.00
2022-08-08T08:51:20.946Z,101989.75
2022-08-08T08:54:09.375Z,101985.84
2022-08-08T08:56:58.100Z,101979.94
2022-08-08T08:59:59.074Z,101976.75
2022-08-08T09:02:48.649Z,101975.88
2022-08-08T09:05:53.799Z,101977.00
2022-08-08T09:08:51.998Z,101972.75
2022-08-08T09:11:47.670Z,101951.03
2022-08-08T09:14:50.353Z,101962.66
2022-08-08T09:17:52.494Z,101972.22
2022-08-08T09:22:00.133Z,101964.22
2022-08-08T09:24:04.301Z,101971.69
2022-08-08T09:27:14.851Z,101966.81
2022-08-08T09:30:23.217Z,101963.34
2022-08-08T09:34:15.037Z,101965.72
2022-08-08T09:36:31.543Z,101961.25
2022-08-08T09:39:23.537Z,101956.19
2022-08-08T09:42:21.281Z,101959.44
2022-08-08T09:45:15.570Z,101961.41
2022-08-08T09:48:17.815Z,101951.31
2022-08-08T09:51:11.034Z,101957.47
2022-08-08T09:54:09.614Z,101949.59
2022-08-08T09:57:16.920Z,101948.22
2022-08-08T10:00:50.116Z,101945.25
2022-08-08T10:03:31.622Z,101946.66
2022-08-08T10:06:21.244Z,101951.97
2022-08-08T10:09:16.538Z,101956.06
2022-08-08T10:12:28.420Z,101947.50
2022-08-08T10:15:18.507Z,101946.34
2022-08-08T10:18:10.402Z,101947.16
2022-08-08T10:21:08.421Z,101942.13
2022-08-08T10:24:29.530Z,101937.22
2022-08-08T10:27:18.984Z,101937.03
2022-08-08T10:30:08.192Z,101941.13
2022-08-08T10:33:09.858Z,101935.28
2022-08-08T10:36:08.438Z,101937.88
2022-08-08T10:39:11.085Z,101931.84
2022-08-08T10:42:16.820Z,101926.91
2022-08-08T10:45:08.099Z,101931.69
2022-08-08T10:47:58.291Z,101929.34
2022-08-08T10:50:47.327Z,101936.88
2022-08-08T10:53:56.606Z,101937.59
2022-08-08T10:56:43.714Z,101940.19
2022-08-08T10:59:31.020Z,101935.03
2022-08-08T11:02:26.784Z,101931.53
2022-08-08T11:05:44.788Z,101921.38
2022-08-08T11:08:53.335Z,101921.84
2022-08-08T11:12:04.686Z,101918.75
2022-08-08T11:15:00.705Z,101924.03
2022-08-08T11:17:59.742Z,101920.91
2022-08-08T11:20:52.391Z,101929.00
2022-08-08T11:23:43.891Z,101923.81
2022-08-08T11:26:34.650Z,101919.53
2022-08-08T11:29:41.901Z,101925.00
2022-08-08T11:32:39.132Z,101924.81
2022-08-08T11:35:38.508Z,101921.78
2022-08-08T11:38:39.057Z,101922.06
2022-08-08T11:41:33.666Z,101912.72
2022-08-08T11:44:29.087Z,101920.84
2022-08-08T11:47:17.009Z,101916.94
2022-08-08T11:50:10.073Z,101916.09
2022-08-08T11:52:59.018Z,101907.50
2022-08-08T11:55:50.300Z,101909.81
2022-08-08T11:58:45.114Z,101912.47
2022-08-08T12:01:41.534Z,101914.41
2022-08-08T12:04:29.348Z,101914.47
2022-08-08T12:07:17.238Z,101911.13
2022-08-08T12:10:16.433Z,101912.84
2022-08-08T12:13:07.057Z,101910.78
2022-08-08T12:16:09.321Z,101906.00
2022-08-08T12:18:59.186Z,101903.91
2022-08-08T12:21:59.800Z,101899.84
2022-08-08T12:24:56.134Z,101900.19
2022-08-08T12:27:45.701Z,101898.47
2022-08-08T12:30:37.772Z,101895.03
2022-08-08T12:33:37.656Z,101893.28
2022-08-08T12:36:46.180Z,101894.94
2022-08-08T12:39:58.164Z,101901.00
2022-08-08T12:42:50.682Z,101893.81
2022-08-08T12:45:58.244Z,101895.13
2022-08-08T12:49:21.919Z,101884.88
2022-08-08T12:52:03.927Z,101882.28
2022-08-08T12:55:13.165Z,101877.72
2022-08-08T12:58:15.712Z,101891.25
2022-08-08T13:01:11.105Z,101881.31
2022-08-08T13:04:02.872Z,101875.22
2022-08-08T13:07:03.986Z,101883.50
2022-08-08T13:10:05.106Z,101887.31
2022-08-08T13:12:52.851Z,101880.41
2022-08-08T13:15:42.230Z,101879.38
2022-08-08T13:18:56.333Z,101879.22
2022-08-08T13:21:58.244Z,101878.09
2022-08-08T13:24:51.177Z,101883.38
2022-08-08T13:27:38.017Z,101875.81
2022-08-08T13:30:28.339Z,101881.34
2022-08-08T13:33:18.445Z,101855.63
2022-08-08T13:36:07.424Z,101871.53
2022-08-08T13:38:59.243Z,101864.59
2022-08-08T13:41:53.530Z,101874.25
2022-08-08T13:44:44.221Z,101874.97
2022-08-08T13:47:32.647Z,101871.41
2022-08-08T13:50:35.186Z,101867.38
2022-08-08T13:53:33.809Z,101869.47
2022-08-08T13:56:31.996Z,101876.75
2022-08-08T13:59:32.974Z,101876.22
2022-08-08T14:02:21.364Z,101843.25
2022-08-08T14:05:22.197Z,101876.94
2022-08-08T14:08:16.859Z,101870.41
2022-08-08T14:11:18.066Z,101871.41
2022-08-08T14:14:09.936Z,101871.72
2022-08-08T14:16:57.298Z,101872.66
2022-08-08T14:19:58.058Z,101865.22
2022-08-08T14:22:52.904Z,101875.16
2022-08-08T14:25:46.004Z,101872.88
2022-08-08T14:28:51.874Z,101883.63
2022-08-08T14:32:11.433Z,101870.63
2022-08-08T14:34:59.699Z,101868.13
2022-08-08T14:38:00.347Z,101869.13
2022-08-08T14:40:50.465Z,101868.78
2022-08-08T14:44:09.576Z,101870.06
2022-08-08T14:47:01.014Z,101868.78
2022-08-08T14:50:06.184Z,101875.06
2022-08-08T14:52:57.027Z,101870.16
2022-08-08T14:55:43.976Z,101872.94
2022-08-08T14:58:32.551Z,101878.13
2022-08-08T15:01:27.833Z,101872.75
2022-08-08T15:04:16.112Z,101872.66
2022-08-08T15:07:02.753Z,101873.53
2022-08-08T15:09:51.441Z,101872.66
2022-08-08T15:12:38.842Z,101876.66
2022-08-08T15:16:03.095Z,101872.47
2022-08-08T15:18:34.597Z,101870.03
2022-08-08T15:21:22.634Z,101869.16
2022-08-08T15:24:16.146Z,101873.16
2022-08-08T15:27:12.130Z,101869.53
2022-08-08T15:30:12.290Z,101872.41
2022-08-08T15:33:00.847Z,101871.88
2022-08-08T15:35:47.665Z,101866.47
2022-08-08T15:38:40.636Z,101869.66
2022-08-08T15:41:43.533Z,101869.88
2022-08-08T15:44:31.264Z,101862.88
2022-08-08T15:47:19.049Z,101865.03
2022-08-08T15:50:16.774Z,101864.38
2022-08-08T15:53:06.993Z,101865.97
2022-08-08T15:55:55.139Z,101860.91
2022-08-08T15:58:48.584Z,101869.25
2022-08-08T16:01:40.719Z,101862.00
2022-08-08T16:04:42.788Z,101868.13
2022-08-08T16:07:51.986Z,101869.53
2022-08-08T16:13:11.730Z,101866.16
2022-08-08T16:13:49.605Z,101869.06
2022-08-08T16:16:40.694Z,101872.66
2022-08-08T16:19:30.351Z,101876.72
2022-08-08T16:22:37.095Z,101878.13
2022-08-08T16:25:24.468Z,101883.06
2022-08-08T16:28:35.938Z,101869.31
2022-08-08T16:31:24.583Z,101879.84
2022-08-08T16:34:13.363Z,101879.22
2022-08-08T16:37:00.237Z,101878.78
2022-08-08T16:40:00.793Z,101871.16
2022-08-08T16:42:51.879Z,101874.44
2022-08-08T16:46:39.229Z,101871.13
2022-08-08T16:48:53.431Z,101879.44
2022-08-08T16:55:03.231Z,101877.81
2022-08-08T16:55:22.714Z,101879.22
2022-08-08T16:58:16.349Z,101882.47
2022-08-08T17:03:58.838Z,101887.69
2022-08-08T17:06:47.864Z,101884.66
2022-08-08T17:09:45.091Z,101879.56
2022-08-08T17:12:32.480Z,101881.72
2022-08-08T17:15:23.477Z,101890.72
2022-08-08T17:18:15.792Z,101883.00
2022-08-08T17:21:03.840Z,101893.06
2022-08-08T17:24:00.017Z,101906.47
2022-08-08T17:26:48.592Z,101909.63
2022-08-08T17:29:43.333Z,101921.97
2022-08-08T17:32:44.562Z,101914.16
2022-08-08T17:35:56.191Z,101910.97
2022-08-08T17:38:44.309Z,101914.56
2022-08-08T17:41:39.218Z,101913.97
2022-08-08T17:44:30.060Z,101917.44
2022-08-08T17:47:24.145Z,101907.22
2022-08-08T17:50:16.914Z,101913.59
2022-08-08T17:53:03.781Z,101921.50
2022-08-08T17:56:06.148Z,101920.22
2022-08-08T17:58:54.925Z,101926.34
2022-08-08T18:01:51.278Z,101922.72
2022-08-08T18:04:48.561Z,101923.50
2022-08-08T18:08:03.414Z,101922.97
2022-08-08T18:10:44.590Z,101934.38
2022-08-08T18:13:34.989Z,101935.03
2022-08-08T18:16:30.984Z,101937.56
2022-08-08T18:19:21.607Z,101944.31
2022-08-08T18:22:49.805Z,101940.34
2022-08-08T18:25:14.895Z,101948.75
2022-08-08T18:28:01.760Z,101956.66
2022-08-08T18:30:51.220Z,101953.50
2022-08-08T18:34:12.451Z,101964.19
2022-08-08T18:36:44.819Z,101944.31
2022-08-08T18:39:36.313Z,101963.69
2022-08-08T18:42:23.303Z,101967.66
2022-08-08T18:45:44.950Z,101978.09
2022-08-08T18:48:20.572Z,101980.72
2022-08-08T18:51:33.499Z,101982.81
2022-08-08T18:54:24.914Z,101980.31
2022-08-08T18:57:15.841Z,101986.78
2022-08-08T19:00:03.707Z,101990.44
2022-08-08T19:02:56.543Z,102000.50
2022-08-08T19:05:49.826Z,101994.69
2022-08-08T19:08:38.227Z,102001.28
2022-08-08T19:11:26.941Z,102007.72
2022-08-08T19:14:20.615Z,102006.47
2022-08-08T19:17:08.559Z,101999.84
2022-08-08T19:20:02.242Z,102010.34
2022-08-08T19:22:53.050Z,102013.06
2022-08-08T19:26:19.682Z,102011.31
2022-08-08T19:28:48.250Z,102016.56
2022-08-08T19:31:49.207Z,102026.91
2022-08-08T19:34:41.648Z,102021.75
2022-08-08T19:37:43.389Z,102024.91
2022-08-08T19:40:35.895Z,102038.13
2022-08-08T19:43:28.626Z,102041.47
2022-08-08T19:46:22.417Z,102045.91
2022-08-08T19:49:09.770Z,102044.97
2022-08-08T19:51:56.710Z,102043.63
2022-08-08T19:54:44.253Z,102050.19
2022-08-08T19:57:35.577Z,102051.28
2022-08-08T20:00:30.869Z,102057.66
2022-08-08T20:04:01.158Z,102058.47
2022-08-08T20:06:25.132Z,102058.88
2022-08-08T20:09:12.595Z,102059.59
2022-08-08T20:12:14.026Z,102061.41
2022-08-08T20:15:21.815Z,102069.78
2022-08-08T20:18:15.545Z,102064.88
2022-08-08T20:21:04.179Z,102068.47
2022-08-08T20:23:52.564Z,102070.34
2022-08-08T20:26:41.630Z,102074.41
2022-08-08T20:29:55.494Z,102076.69
2022-08-08T20:32:37.728Z,102080.72
2022-08-08T20:35:24.343Z,102081.41
2022-08-08T20:38:43.296Z,102082.63
2022-08-08T20:41:33.767Z,102079.66
2022-08-08T20:44:28.681Z,102085.19
2022-08-08T20:47:23.408Z,102091.50
2022-08-08T20:50:15.138Z,102078.22
2022-08-08T20:53:03.401Z,102082.69
2022-08-08T20:55:55.998Z,102081.03
2022-08-08T20:58:46.835Z,102081.50
2022-08-08T21:02:06.197Z,102080.06
2022-08-08T21:05:01.621Z,102080.41
2022-08-08T21:08:34.291Z,102080.59
2022-08-08T21:11:08.437Z,102079.38
2022-08-08T21:13:58.567Z,102085.13
2022-08-08T21:16:49.565Z,102079.28
2022-08-08T21:19:45.248Z,102080.63
2022-08-08T21:22:33.012Z,102085.72
2022-08-08T21:25:21.180Z,102083.25
2022-08-08T21:28:15.886Z,102081.88
2022-08-08T21:31:05.854Z,102083.38
2022-08-08T21:34:09.031Z,102085.66
2022-08-08T21:37:16.116Z,102091.56
2022-08-08T21:40:07.938Z,102094.34
2022-08-08T21:42:55.952Z,102092.09
2022-08-08T21:48:06.008Z,102093.03
2022-08-08T21:48:53.226Z,102091.56
2022-08-08T21:54:17.654Z,102101.50
2022-08-08T21:55:01.759Z,102098.09
2022-08-08T21:58:05.179Z,102097.22
2022-08-08T22:00:59.686Z,102105.25
2022-08-08T22:03:52.530Z,102106.47
2022-08-08T22:06:40.676Z,102095.28
2022-08-08T22:09:41.027Z,102099.66
2022-08-08T22:12:31.142Z,102103.13
2022-08-08T22:15:18.321Z,102103.03
2022-08-08T22:18:12.342Z,102101.88
2022-08-08T22:21:10.628Z,102102.00
2022-08-08T22:24:01.424Z,102106.13
2022-08-08T22:27:01.597Z,102098.16
2022-08-08T22:30:01.928Z,102097.09
2022-08-08T22:32:49.627Z,102106.19
2022-08-08T22:36:05.601Z,102108.09
2022-08-08T22:38:48.466Z,102104.63
2022-08-08T22:41:36.085Z,102103.81
2022-08-08T22:44:25.746Z,102107.34
2022-08-08T22:47:17.469Z,102100.19
2022-08-08T22:50:05.804Z,102116.41
2022-08-08T22:54:31.157Z,102110.03
2022-08-08T22:56:15.670Z,102111.53
2022-08-08T22:59:08.357Z,102117.13
2022-08-08T23:02:02.371Z,102109.03
2022-08-08T23:05:04.734Z,102112.88
2022-08-08T23:07:57.672Z,102112.91
2022-08-08T23:10:46.020Z,102116.53
2022-08-08T23:13:41.880Z,102108.38
2022-08-08T23:16:43.526Z,102108.50
2022-08-08T23:19:32.682Z,102104.88
2022-08-08T23:22:20.257Z,102107.63
2022-08-08T23:25:07.700Z,102098.78
2022-08-08T23:27:55.856Z,102103.25
2022-08-08T23:30:46.003Z,102105.88
2022-08-08T23:34:15.989Z,102107.63
2022-08-08T23:36:39.058Z,102112.00
2022-08-08T23:39:31.929Z,102113.03
2022-08-08T23:42:27.801Z,102114.91
2022-08-08T23:45:15.940Z,102114.09
2022-08-08T23:49:05.198Z,102111.25
2022-08-08T23:51:12.723Z,102108.63
2022-08-08T23:54:41.759Z,102103.25
2022-08-08T23:57:26.784Z,102108.72
